createdAt,value
2023-02-22T00:01:51.119Z,2.16
2023-02-22T00:04:53.793Z,2.19
2023-02-22T00:07:58.524Z,2.17
2023-02-22T00:11:08.330Z,2.07
2023-02-22T00:14:09.866Z,2.08
2023-02-22T00:17:13.490Z,2.13
2023-02-22T00:20:19.911Z,2.05
2023-02-22T00:23:23.021Z,2.02
2023-02-22T00:26:24.524Z,1.99
2023-02-22T00:29:26.500Z,1.92
2023-02-22T00:32:27.997Z,1.94
2023-02-22T00:35:30.971Z,1.89
2023-02-22T00:38:32.594Z,1.92
2023-02-22T00:41:34.361Z,1.96
2023-02-22T00:44:37.675Z,1.90
2023-02-22T00:47:39.209Z,1.86
2023-02-22T00:50:40.842Z,1.79
2023-02-22T00:53:42.847Z,1.71
2023-02-22T00:56:44.296Z,1.69
2023-02-22T00:59:45.777Z,1.67
2023-02-22T01:02:50.692Z,1.66
2023-02-22T01:05:52.483Z,1.64
2023-02-22T01:08:53.944Z,1.64
2023-02-22T01:11:56.789Z,1.67
2023-02-22T01:14:58.381Z,1.67
2023-02-22T01:18:00.033Z,1.65
2023-02-22T01:21:02.470Z,1.62
2023-02-22T01:24:04.122Z,1.67
2023-02-22T01:27:05.604Z,1.69
2023-02-22T01:30:08.526Z,1.64
2023-02-22T01:33:12.722Z,1.58
2023-02-22T01:36:14.128Z,1.61
2023-02-22T01:39:17.807Z,1.59
2023-02-22T01:42:19.430Z,1.54
2023-02-22T01:45:35.648Z,1.49
2023-02-22T01:49:00.603Z,1.41
2023-02-22T01:52:05.559Z,1.34
2023-02-22T01:55:07.277Z,1.31
2023-02-22T01:58:09.590Z,1.29
2023-02-22T02:01:13.170Z,1.22
2023-02-22T02:04:20.699Z,1.26
2023-02-22T02:07:23.945Z,1.34
2023-02-22T02:10:28.008Z,1.28
2023-02-22T02:13:29.797Z,1.27
2023-02-22T02:16:41.834Z,1.31
2023-02-22T02:19:44.634Z,1.37
2023-02-22T02:22:54.832Z,1.40
2023-02-22T02:26:23.740Z,1.33
2023-02-22T02:29:43.980Z,1.33
2023-02-22T02:32:53.974Z,1.21
2023-02-22T02:36:18.237Z,1.17
2023-02-22T02:39:32.044Z,1.16
2023-02-22T02:42:38.757Z,1.16
2023-02-22T02:45:47.540Z,1.13
2023-02-22T02:48:58.537Z,1.14
2023-02-22T02:52:02.732Z,1.12
2023-02-22T02:55:04.899Z,1.07
2023-02-22T02:58:07.946Z,1.07
2023-02-22T03:01:12.804Z,1.01
2023-02-22T03:04:40.386Z,0.92
2023-02-22T03:08:03.530Z,0.86
2023-02-22T03:11:15.291Z,0.85
2023-02-22T03:14:42.569Z,0.80
2023-02-22T03:17:47.704Z,0.78
2023-02-22T03:21:39.417Z,0.77
2023-02-22T03:24:55.898Z,0.77
2023-02-22T03:28:03.419Z,0.74
2023-02-22T03:31:10.912Z,0.67
2023-02-22T03:34:22.416Z,0.60
2023-02-22T03:37:29.067Z,0.63
2023-02-22T03:40:39.408Z,0.70
2023-02-22T03:43:49.393Z,0.78
2023-02-22T03:46:56.788Z,0.86
2023-02-22T03:50:08.943Z,0.89
2023-02-22T03:53:11.654Z,0.83
2023-02-22T03:56:20.675Z,0.86
2023-02-22T03:59:25.378Z,0.90
2023-02-22T04:02:26.896Z,0.85
2023-02-22T04:05:28.442Z,0.75
2023-02-22T04:08:31.686Z,0.75
2023-02-22T04:11:34.004Z,0.72
2023-02-22T04:14:35.909Z,0.67
2023-02-22T04:17:37.364Z,0.66
2023-02-22T04:20:39.747Z,0.70
2023-02-22T04:23:45.230Z,0.78
2023-02-22T04:26:47.309Z,0.79
2023-02-22T04:29:50.035Z,0.71
2023-02-22T04:32:51.906Z,0.73
2023-02-22T04:35:57.686Z,0.73
2023-02-22T04:39:00.271Z,0.76
2023-02-22T04:42:03.343Z,0.79
2023-02-22T04:45:07.908Z,0.79
2023-02-22T04:48:10.742Z,0.76
2023-02-22T04:51:13.033Z,0.71
2023-02-22T04:54:22.514Z,0.62
2023-02-22T04:57:24.356Z,0.61
2023-02-22T05:00:26.088Z,0.58
2023-02-22T05:03:31.888Z,0.62
2023-02-22T05:06:33.846Z,0.65
2023-02-22T05:09:35.291Z,0.66
2023-02-22T05:12:37.139Z,0.63
2023-02-22T05:15:38.651Z,0.57
2023-02-22T05:18:40.150Z,0.66
2023-02-22T05:21:41.689Z,0.65
2023-02-22T05:24:43.839Z,0.60
2023-02-22T05:27:45.274Z,0.56
2023-02-22T05:30:46.921Z,0.62
2023-02-22T05:33:48.510Z,0.63
2023-02-22T05:36:50.075Z,0.64
2023-02-22T05:39:51.557Z,0.62
2023-02-22T05:42:53.412Z,0.56
2023-02-22T05:45:55.631Z,0.62
2023-02-22T05:48:57.193Z,0.62
2023-02-22T05:51:59.835Z,0.71
2023-02-22T05:55:01.375Z,0.75
2023-02-22T05:58:05.729Z,0.77
2023-02-22T06:01:07.271Z,0.88
2023-02-22T06:04:09.195Z,0.89
2023-02-22T06:07:10.686Z,0.88
2023-02-22T06:10:13.416Z,0.95
2023-02-22T06:13:14.853Z,1.00
2023-02-22T06:16:16.426Z,0.99
2023-02-22T06:19:17.943Z,1.05
2023-02-22T06:22:19.942Z,1.04
2023-02-22T06:25:24.195Z,1.07
2023-02-22T06:28:26.328Z,1.08
2023-02-22T06:31:27.934Z,1.06
2023-02-22T06:34:29.455Z,1.09
2023-02-22T06:37:31.020Z,1.12
2023-02-22T06:40:32.491Z,1.14
2023-02-22T06:43:33.976Z,1.13
2023-02-22T06:46:35.431Z,1.24
2023-02-22T06:49:37.023Z,1.38
2023-02-22T06:52:42.676Z,1.47
2023-02-22T06:55:44.211Z,1.60
2023-02-22T06:58:45.686Z,1.67
2023-02-22T07:01:47.131Z,1.84
2023-02-22T07:04:48.569Z,1.94
2023-02-22T07:07:52.684Z,2.10
2023-02-22T07:10:54.346Z,2.17
2023-02-22T07:13:55.830Z,2.21
2023-02-22T07:16:57.313Z,2.25
2023-02-22T07:19:58.748Z,2.39
2023-02-22T07:23:01.228Z,2.45
2023-02-22T07:26:05.403Z,2.53
2023-02-22T07:29:06.951Z,2.63
2023-02-22T07:32:08.602Z,2.73
2023-02-22T07:35:18.957Z,2.89
2023-02-22T07:38:21.101Z,3.00
2023-02-22T07:41:23.042Z,3.18
2023-02-22T07:44:24.509Z,3.35
2023-02-22T07:47:25.950Z,3.44
2023-02-22T07:50:30.669Z,3.59
2023-02-22T07:53:33.563Z,3.74
2023-02-22T07:56:35.026Z,3.93
2023-02-22T07:59:36.613Z,4.13
2023-02-22T08:02:38.117Z,4.34
2023-02-22T08:05:41.540Z,4.54
2023-02-22T08:08:43.012Z,4.72
2023-02-22T08:11:44.462Z,4.89
2023-02-22T08:14:45.992Z,5.08
2023-02-22T08:17:47.494Z,5.18
2023-02-22T08:20:51.915Z,5.29
2023-02-22T08:23:54.268Z,5.49
2023-02-22T08:26:55.869Z,5.73
2023-02-22T08:29:57.380Z,5.97
2023-02-22T08:32:59.579Z,6.25
2023-02-22T08:36:01.781Z,6.46
2023-02-22T08:39:03.324Z,6.76
2023-02-22T08:42:05.112Z,7.02
2023-02-22T08:45:07.087Z,7.11
2023-02-22T08:48:08.544Z,7.13
2023-02-22T08:51:09.964Z,7.27
2023-02-22T08:54:11.560Z,7.44
2023-02-22T08:57:13.555Z,7.57
2023-02-22T09:00:15.796Z,7.79
2023-02-22T09:03:17.421Z,8.02
2023-02-22T09:06:19.427Z,8.12
2023-02-22T09:09:21.482Z,8.28
2023-02-22T09:12:23.074Z,8.49
2023-02-22T09:15:25.651Z,8.74
2023-02-22T09:18:35.974Z,8.92
2023-02-22T09:21:45.017Z,9.14
2023-02-22T09:24:46.496Z,9.32
2023-02-22T09:27:53.285Z,9.50
2023-02-22T09:30:54.817Z,9.65
2023-02-22T09:33:56.373Z,9.91
2023-02-22T09:36:58.177Z,10.07
2023-02-22T09:39:59.803Z,10.28
2023-02-22T09:43:16.826Z,10.42
2023-02-22T09:46:45.594Z,10.67
2023-02-22T09:50:02.299Z,10.82
2023-02-22T09:53:08.047Z,10.93
2023-02-22T09:56:17.406Z,11.06
2023-02-22T09:59:27.146Z,11.16
2023-02-22T10:02:41.335Z,11.07
2023-02-22T10:05:48.829Z,11.13
2023-02-22T10:08:56.348Z,11.12
2023-02-22T10:12:02.770Z,11.18
2023-02-22T10:15:25.988Z,11.40
2023-02-22T10:18:42.482Z,11.59
2023-02-22T10:21:55.618Z,11.70
2023-02-22T10:25:04.969Z,11.90
2023-02-22T10:28:21.671Z,12.15
2023-02-22T10:31:28.178Z,12.33
2023-02-22T10:34:40.595Z,12.53
2023-02-22T10:37:42.217Z,12.40
2023-02-22T10:40:49.381Z,12.58
2023-02-22T10:43:50.901Z,12.68
2023-02-22T10:46:53.314Z,12.84
2023-02-22T10:50:00.748Z,12.88
2023-02-22T10:53:02.731Z,12.96
2023-02-22T10:56:18.440Z,13.12
2023-02-22T10:59:35.770Z,13.20
2023-02-22T11:02:37.602Z,13.27
2023-02-22T11:05:41.151Z,13.39
2023-02-22T11:08:43.505Z,13.52
2023-02-22T11:11:47.646Z,13.60
2023-02-22T11:14:49.276Z,13.85
2023-02-22T11:17:53.769Z,13.95
2023-02-22T11:21:04.352Z,13.82
2023-02-22T11:24:13.000Z,13.91
2023-02-22T11:27:32.693Z,13.95
2023-02-22T11:30:36.062Z,14.00
2023-02-22T11:33:38.619Z,14.05
2023-02-22T11:36:43.290Z,14.27
2023-02-22T11:39:45.497Z,14.45
2023-02-22T11:42:47.218Z,14.64
2023-02-22T11:46:03.811Z,14.65
2023-02-22T11:49:17.302Z,14.67
2023-02-22T11:52:34.641Z,14.74
2023-02-22T11:55:59.823Z,14.83
2023-02-22T11:59:15.680Z,14.77
2023-02-22T12:02:33.641Z,14.85
2023-02-22T12:05:37.241Z,14.88
2023-02-22T12:08:38.738Z,14.96
2023-02-22T12:11:50.785Z,14.86
2023-02-22T12:15:45.597Z,14.70
2023-02-22T12:19:09.265Z,14.66
2023-02-22T12:22:19.437Z,14.37
2023-02-22T12:25:31.753Z,14.19
2023-02-22T12:28:52.177Z,14.14
2023-02-22T12:32:16.312Z,13.83
2023-02-22T12:35:29.775Z,13.80
2023-02-22T12:38:46.833Z,13.85
2023-02-22T12:41:52.766Z,13.69
2023-02-22T12:45:00.839Z,13.74
2023-02-22T12:48:36.389Z,13.98
2023-02-22T12:51:54.237Z,13.97
2023-02-22T12:55:05.339Z,14.13
2023-02-22T12:58:15.771Z,14.24
2023-02-22T13:01:23.386Z,14.20
2023-02-22T13:04:25.337Z,14.11
2023-02-22T13:08:01.833Z,14.00
2023-02-22T13:11:28.310Z,13.85
2023-02-22T13:14:51.344Z,14.02
2023-02-22T13:18:06.938Z,14.05
2023-02-22T13:21:17.767Z,13.79
2023-02-22T13:24:31.210Z,13.79
2023-02-22T13:27:59.302Z,13.87
2023-02-22T13:31:19.459Z,13.90
2023-02-22T13:34:41.281Z,13.96
2023-02-22T13:38:01.451Z,13.77
2023-02-22T13:41:34.977Z,13.72
2023-02-22T13:45:04.498Z,13.75
2023-02-22T13:48:12.146Z,13.86
2023-02-22T13:51:37.857Z,14.02
2023-02-22T13:54:57.336Z,13.81
2023-02-22T13:58:03.409Z,13.75
2023-02-22T14:01:04.869Z,13.65
2023-02-22T14:04:29.045Z,13.51
2023-02-22T14:07:33.705Z,13.44
2023-02-22T14:10:55.718Z,13.38
2023-02-22T14:14:00.870Z,13.46
2023-02-22T14:17:25.185Z,13.39
2023-02-22T14:20:35.157Z,13.38
2023-02-22T14:23:41.808Z,13.24
2023-02-22T14:26:56.380Z,13.29
2023-02-22T14:30:00.452Z,13.34
2023-02-22T14:33:02.563Z,13.28
2023-02-22T14:36:04.331Z,13.26
2023-02-22T14:39:12.506Z,13.20
2023-02-22T14:42:19.290Z,13.17
2023-02-22T14:45:33.258Z,13.21
2023-02-22T14:48:43.204Z,13.23
2023-02-22T14:51:59.539Z,13.18
2023-02-22T14:55:25.492Z,13.10
2023-02-22T14:58:46.700Z,12.81
2023-02-22T15:01:58.707Z,12.71
2023-02-22T15:05:07.739Z,12.66
2023-02-22T15:08:09.523Z,12.61
2023-02-22T15:11:23.495Z,12.65
2023-02-22T15:14:26.806Z,12.55
2023-02-22T15:17:28.611Z,12.47
2023-02-22T15:20:30.317Z,12.38
2023-02-22T15:23:41.764Z,12.33
2023-02-22T15:26:59.240Z,12.26
2023-02-22T15:30:05.895Z,12.16
2023-02-22T15:33:16.854Z,12.07
2023-02-22T15:36:19.773Z,12.04
2023-02-22T15:39:33.100Z,11.94
2023-02-22T15:42:43.885Z,11.90
2023-02-22T15:45:46.040Z,11.92
2023-02-22T15:49:04.681Z,11.92
2023-02-22T15:52:26.510Z,11.85
2023-02-22T15:55:40.404Z,11.77
2023-02-22T15:58:44.101Z,11.75
2023-02-22T16:01:48.599Z,11.71
2023-02-22T16:04:59.781Z,11.65
2023-02-22T16:08:01.540Z,11.61
2023-02-22T16:11:12.892Z,11.54
2023-02-22T16:14:52.310Z,11.50
2023-02-22T16:18:02.115Z,11.42
2023-02-22T16:21:12.864Z,11.38
2023-02-22T16:24:26.453Z,11.27
2023-02-22T16:27:28.185Z,11.23
2023-02-22T16:30:35.360Z,11.13
2023-02-22T16:33:38.754Z,11.04
2023-02-22T16:36:44.758Z,11.03
2023-02-22T16:39:46.266Z,11.00
2023-02-22T16:42:48.088Z,10.92
2023-02-22T16:45:50.074Z,10.92
2023-02-22T16:48:51.696Z,10.93
2023-02-22T16:51:59.756Z,10.91
2023-02-22T16:55:02.052Z,10.86
2023-02-22T16:58:04.586Z,10.83
2023-02-22T17:01:06.499Z,10.81
2023-02-22T17:04:15.695Z,10.81
2023-02-22T17:07:24.039Z,10.81
2023-02-22T17:10:26.749Z,10.74
2023-02-22T17:13:29.369Z,10.66
2023-02-22T17:16:31.243Z,10.66
2023-02-22T17:19:32.772Z,10.68
2023-02-22T17:22:34.212Z,10.69
2023-02-22T17:25:38.452Z,10.65
2023-02-22T17:28:40.529Z,10.61
2023-02-22T17:31:42.163Z,10.58
2023-02-22T17:34:43.640Z,10.55
2023-02-22T17:37:47.072Z,10.54
2023-02-22T17:40:48.732Z,10.56
2023-02-22T17:43:50.640Z,10.56
2023-02-22T17:46:53.172Z,10.54
2023-02-22T17:49:57.885Z,10.55
2023-02-22T17:53:03.325Z,10.51
2023-02-22T17:56:10.495Z,10.50
2023-02-22T17:59:12.004Z,10.49
2023-02-22T18:02:13.537Z,10.48
2023-02-22T18:05:17.853Z,10.47
2023-02-22T18:08:19.664Z,10.46
2023-02-22T18:11:26.145Z,10.44
2023-02-22T18:14:27.743Z,10.42
2023-02-22T18:17:29.241Z,10.36
2023-02-22T18:20:31.436Z,10.34
2023-02-22T18:23:33.898Z,10.32
2023-02-22T18:26:35.621Z,10.28
2023-02-22T18:29:37.314Z,10.24
2023-02-22T18:32:39.700Z,10.23
2023-02-22T18:35:44.888Z,10.19
2023-02-22T18:38:46.396Z,10.13
2023-02-22T18:41:48.744Z,10.11
2023-02-22T18:44:51.088Z,10.08
2023-02-22T18:47:52.599Z,10.04
2023-02-22T18:50:54.093Z,10.03
2023-02-22T18:54:00.286Z,10.02
2023-02-22T18:57:02.154Z,10.03
2023-02-22T19:00:04.697Z,10.01
2023-02-22T19:03:07.501Z,9.99
2023-02-22T19:06:09.790Z,9.99
2023-02-22T19:09:11.300Z,9.88
2023-02-22T19:12:12.827Z,9.75
2023-02-22T19:15:14.458Z,9.68
2023-02-22T19:18:15.994Z,9.71
2023-02-22T19:21:19.003Z,9.64
2023-02-22T19:24:20.881Z,9.64
2023-02-22T19:27:22.580Z,9.70
2023-02-22T19:30:25.271Z,9.68
2023-02-22T19:33:27.752Z,9.66
2023-02-22T19:36:29.371Z,9.63
2023-02-22T19:39:32.872Z,9.64
2023-02-22T19:42:34.596Z,9.60
2023-02-22T19:45:39.669Z,9.58
2023-02-22T19:48:41.248Z,9.50
2023-02-22T19:51:42.757Z,9.52
2023-02-22T19:54:44.892Z,9.52
2023-02-22T19:57:47.127Z,9.49
2023-02-22T20:00:48.650Z,9.48
2023-02-22T20:04:10.960Z,9.48
2023-02-22T20:07:12.456Z,9.42
2023-02-22T20:10:15.062Z,9.39
2023-02-22T20:13:17.087Z,9.33
2023-02-22T20:16:18.753Z,9.35
2023-02-22T20:19:22.388Z,9.35
2023-02-22T20:22:23.998Z,9.32
2023-02-22T20:25:25.527Z,9.31
2023-02-22T20:28:27.365Z,9.28
2023-02-22T20:31:29.565Z,9.29
2023-02-22T20:34:33.195Z,9.22
2023-02-22T20:37:35.502Z,9.22
2023-02-22T20:40:37.445Z,9.22
2023-02-22T20:43:39.664Z,9.15
2023-02-22T20:46:42.837Z,9.17
2023-02-22T20:49:44.403Z,9.13
2023-02-22T20:52:45.829Z,9.11
2023-02-22T20:55:51.638Z,9.12
2023-02-22T20:58:55.358Z,9.04
2023-02-22T21:01:57.144Z,9.05
2023-02-22T21:04:58.741Z,9.03
2023-02-22T21:08:00.950Z,9.03
2023-02-22T21:11:02.456Z,9.03
2023-02-22T21:14:03.978Z,9.04
2023-02-22T21:17:07.365Z,9.02
2023-02-22T21:20:12.501Z,9.03
2023-02-22T21:23:15.820Z,9.01
2023-02-22T21:26:20.520Z,9.00
2023-02-22T21:29:21.971Z,9.00
2023-02-22T21:32:23.447Z,8.99
2023-02-22T21:35:25.758Z,8.98
2023-02-22T21:38:27.450Z,8.96
2023-02-22T21:41:30.590Z,8.88
2023-02-22T21:44:32.211Z,8.89
2023-02-22T21:47:35.801Z,8.88
2023-02-22T21:50:37.719Z,8.94
2023-02-22T21:53:46.909Z,8.90
2023-02-22T21:56:49.594Z,8.85
2023-02-22T21:59:53.093Z,8.86
2023-02-22T22:03:05.796Z,8.88
2023-02-22T22:06:10.783Z,8.88
2023-02-22T22:09:18.230Z,8.89
2023-02-22T22:12:25.883Z,8.91
2023-02-22T22:15:31.544Z,8.95
2023-02-22T22:18:33.058Z,8.88
2023-02-22T22:21:34.657Z,8.89
2023-02-22T22:24:36.822Z,8.91
2023-02-22T22:27:39.598Z,8.88
2023-02-22T22:30:41.038Z,8.86
2023-02-22T22:33:44.213Z,8.86
2023-02-22T22:36:46.100Z,8.87
2023-02-22T22:39:47.608Z,8.89
2023-02-22T22:42:49.093Z,8.83
2023-02-22T22:45:50.602Z,8.76
2023-02-22T22:48:52.096Z,8.72
2023-02-22T22:51:54.481Z,8.70
2023-02-22T22:54:55.967Z,8.73
2023-02-22T22:57:58.797Z,8.75
2023-02-22T23:01:06.677Z,8.67
2023-02-22T23:04:13.196Z,8.67
2023-02-22T23:07:14.661Z,8.69
2023-02-22T23:10:16.377Z,8.62
2023-02-22T23:13:17.839Z,8.62
2023-02-22T23:16:19.791Z,8.63
2023-02-22T23:19:21.321Z,8.66
2023-02-22T23:22:23.038Z,8.64
2023-02-22T23:25:24.837Z,8.57
2023-02-22T23:28:26.261Z,8.59
2023-02-22T23:31:32.199Z,8.59
2023-02-22T23:34:35.869Z,8.62
2023-02-22T23:37:39.794Z,8.64
2023-02-22T23:40:42.353Z,8.72
2023-02-22T23:43:45.244Z,8.66
2023-02-22T23:51:10.544Z,8.62
2023-02-22T23:54:14.915Z,8.56
2023-02-22T23:57:17.567Z,8.59
